createdAt,value
2023-02-09T00:00:02.660Z,-0.73
2023-02-09T00:02:30.112Z,-0.75
2023-02-09T00:04:58.705Z,-0.67
2023-02-09T00:07:26.071Z,-0.72
2023-02-09T00:09:53.547Z,-0.65
2023-02-09T00:12:38.487Z,-0.69
2023-02-09T00:15:07.223Z,-0.70
2023-02-09T00:17:35.760Z,-0.80
2023-02-09T00:20:04.921Z,-0.74
2023-02-09T00:22:32.901Z,-0.74
2023-02-09T00:25:00.469Z,-0.86
2023-02-09T00:27:27.810Z,-0.85
2023-02-09T00:29:55.120Z,-0.89
2023-02-09T00:32:22.382Z,-0.92
2023-02-09T00:34:49.875Z,-0.94
2023-02-09T00:37:18.790Z,-1.02
2023-02-09T00:39:46.165Z,-1.00
2023-02-09T00:42:13.437Z,-0.99
2023-02-09T00:44:41.873Z,-0.90
2023-02-09T00:47:09.277Z,-0.90
2023-02-09T00:49:36.833Z,-0.90
2023-02-09T00:52:04.185Z,-0.86
2023-02-09T00:54:32.839Z,-0.87
2023-02-09T00:57:05.218Z,-0.87
2023-02-09T00:59:34.069Z,-0.86
2023-02-09T01:02:01.569Z,-0.88
2023-02-09T01:04:29.001Z,-0.85
2023-02-09T01:06:56.311Z,-0.83
2023-02-09T01:09:23.598Z,-0.72
2023-02-09T01:11:52.194Z,-0.72
2023-02-09T01:14:19.511Z,-0.72
2023-02-09T01:16:46.887Z,-0.73
2023-02-09T01:19:14.332Z,-0.58
2023-02-09T01:21:42.403Z,-0.57
2023-02-09T01:24:13.258Z,-0.54
2023-02-09T01:26:40.922Z,-0.54
2023-02-09T01:29:12.607Z,-0.61
2023-02-09T01:31:39.996Z,-0.53
2023-02-09T01:34:07.319Z,-0.48
2023-02-09T01:36:34.982Z,-0.52
2023-02-09T01:39:02.976Z,-0.49
2023-02-09T01:41:30.291Z,-0.53
2023-02-09T01:43:59.383Z,-0.55
2023-02-09T01:46:29.437Z,-0.52
2023-02-09T01:49:00.072Z,-0.60
2023-02-09T01:51:28.770Z,-0.61
2023-02-09T01:53:56.191Z,-0.67
2023-02-09T01:56:27.180Z,-0.66
2023-02-09T01:58:54.978Z,-0.63
2023-02-09T02:01:22.843Z,-0.69
2023-02-09T02:03:52.586Z,-0.73
2023-02-09T02:06:20.402Z,-0.84
2023-02-09T02:08:49.771Z,-0.75
2023-02-09T02:11:17.363Z,-0.81
2023-02-09T02:13:44.904Z,-0.80
2023-02-09T02:16:19.231Z,-0.79
2023-02-09T02:18:58.038Z,-0.90
2023-02-09T02:21:38.416Z,-0.88
2023-02-09T02:24:12.684Z,-0.91
2023-02-09T02:26:49.649Z,-0.86
2023-02-09T02:29:25.194Z,-0.89
2023-02-09T02:32:09.801Z,-0.82
2023-02-09T02:34:42.561Z,-0.83
2023-02-09T02:37:14.035Z,-0.80
2023-02-09T02:39:44.837Z,-0.80
2023-02-09T02:42:31.905Z,-0.90
2023-02-09T02:45:04.313Z,-0.80
2023-02-09T02:47:35.137Z,-0.86
2023-02-09T02:50:06.830Z,-0.83
2023-02-09T02:52:34.197Z,-0.80
2023-02-09T02:55:03.897Z,-0.75
2023-02-09T02:57:33.453Z,-0.74
2023-02-09T03:00:03.488Z,-0.79
2023-02-09T03:02:33.535Z,-0.74
2023-02-09T03:05:03.476Z,-0.71
2023-02-09T03:07:30.781Z,-0.76
2023-02-09T03:09:58.325Z,-0.75
2023-02-09T03:12:33.292Z,-0.79
2023-02-09T03:15:09.525Z,-0.93
2023-02-09T03:17:42.449Z,-0.88
2023-02-09T03:20:15.326Z,-0.94
2023-02-09T03:22:43.668Z,-0.83
2023-02-09T03:25:13.819Z,-0.94
2023-02-09T03:27:42.742Z,-0.95
2023-02-09T03:30:12.523Z,-0.86
2023-02-09T03:32:40.248Z,-0.98
2023-02-09T03:35:09.130Z,-1.08
2023-02-09T03:37:37.715Z,-1.06
2023-02-09T03:40:05.361Z,-1.07
2023-02-09T03:42:32.635Z,-0.94
2023-02-09T03:44:59.908Z,-1.05
2023-02-09T03:47:27.243Z,-1.07
2023-02-09T03:49:54.530Z,-1.08
2023-02-09T03:52:21.800Z,-1.05
2023-02-09T03:54:50.419Z,-1.21
2023-02-09T03:57:17.850Z,-1.11
2023-02-09T03:59:45.211Z,-1.19
2023-02-09T04:02:12.525Z,-1.15
2023-02-09T04:04:40.021Z,-1.02
2023-02-09T04:07:07.307Z,-1.03
2023-02-09T04:09:35.000Z,-0.95
2023-02-09T04:12:03.605Z,-1.05
2023-02-09T04:14:30.868Z,-0.99
2023-02-09T04:16:58.137Z,-1.00
2023-02-09T04:19:25.498Z,-1.03
2023-02-09T04:21:52.758Z,-1.13
2023-02-09T04:24:21.317Z,-1.30
2023-02-09T04:26:48.608Z,-1.27
2023-02-09T04:29:17.200Z,-1.35
2023-02-09T04:31:44.528Z,-1.31
2023-02-09T04:34:12.028Z,-1.39
2023-02-09T04:36:39.272Z,-1.38
2023-02-09T04:39:06.538Z,-1.43
2023-02-09T04:41:33.820Z,-1.39
2023-02-09T04:44:01.098Z,-1.49
2023-02-09T04:46:29.865Z,-1.36
2023-02-09T04:48:57.109Z,-1.54
2023-02-09T04:51:24.370Z,-1.53
2023-02-09T04:53:51.625Z,-1.53
2023-02-09T04:56:18.900Z,-1.63
2023-02-09T04:59:04.076Z,-1.70
2023-02-09T05:01:33.591Z,-1.95
2023-02-09T05:04:00.898Z,-1.93
2023-02-09T05:06:28.260Z,-1.99
2023-02-09T05:08:55.538Z,-2.04
2023-02-09T05:11:25.285Z,-2.16
2023-02-09T05:13:52.862Z,-2.29
2023-02-09T05:16:20.190Z,-2.61
2023-02-09T05:18:50.306Z,-3.02
2023-02-09T05:21:17.569Z,-2.98
2023-02-09T05:23:44.852Z,-3.15
2023-02-09T05:26:12.132Z,-3.16
2023-02-09T05:28:39.519Z,-3.49
2023-02-09T05:31:06.871Z,-3.76
2023-02-09T05:33:34.263Z,-3.78
2023-02-09T05:36:08.208Z,-3.89
2023-02-09T05:38:35.686Z,-3.85
2023-02-09T05:41:04.874Z,-3.91
2023-02-09T05:43:32.182Z,-3.80
2023-02-09T05:45:59.472Z,-3.93
2023-02-09T05:48:26.824Z,-4.16
2023-02-09T05:50:54.106Z,-4.29
2023-02-09T05:53:25.277Z,-3.95
2023-02-09T05:55:52.526Z,-4.14
2023-02-09T05:58:19.782Z,-4.39
2023-02-09T06:00:47.676Z,-4.25
2023-02-09T06:03:15.176Z,-4.32
2023-02-09T06:05:45.132Z,-4.25
2023-02-09T06:08:12.415Z,-4.47
2023-02-09T06:10:41.008Z,-4.37
2023-02-09T06:13:08.338Z,-4.55
2023-02-09T06:15:35.645Z,-4.53
2023-02-09T06:18:03.249Z,-4.62
2023-02-09T06:20:30.508Z,-4.68
2023-02-09T06:22:57.794Z,-4.67
2023-02-09T06:25:25.047Z,-4.43
2023-02-09T06:27:53.691Z,-4.45
2023-02-09T06:30:21.012Z,-4.56
2023-02-09T06:32:48.271Z,-4.71
2023-02-09T06:35:15.589Z,-4.50
2023-02-09T06:37:42.870Z,-4.67
2023-02-09T06:40:10.503Z,-4.79
2023-02-09T06:42:46.784Z,-4.73
2023-02-09T06:45:16.396Z,-4.86
2023-02-09T06:47:44.523Z,-4.73
2023-02-09T06:50:13.170Z,-4.91
2023-02-09T06:52:40.566Z,-4.79
2023-02-09T06:55:08.291Z,-4.77
2023-02-09T06:57:36.142Z,-4.79
2023-02-09T07:00:04.930Z,-4.71
2023-02-09T07:02:33.823Z,-4.70
2023-02-09T07:05:01.313Z,-4.48
2023-02-09T07:07:28.616Z,-4.45
2023-02-09T07:09:56.000Z,-4.16
2023-02-09T07:12:23.505Z,-4.18
2023-02-09T07:14:50.786Z,-4.41
2023-02-09T07:17:18.059Z,-4.25
2023-02-09T07:19:47.021Z,-4.21
2023-02-09T07:22:14.452Z,-4.12
2023-02-09T07:24:41.887Z,-4.24
2023-02-09T07:27:09.252Z,-4.32
2023-02-09T07:29:36.613Z,-4.07
2023-02-09T07:32:04.005Z,-3.67
2023-02-09T07:34:31.332Z,-3.60
2023-02-09T07:36:59.999Z,-3.28
2023-02-09T07:39:27.379Z,-3.33
2023-02-09T07:41:54.920Z,-3.01
2023-02-09T07:44:22.258Z,-2.80
2023-02-09T07:46:49.767Z,-2.68
2023-02-09T07:49:17.259Z,-2.83
2023-02-09T07:51:44.646Z,-2.70
2023-02-09T07:54:14.878Z,-2.64
2023-02-09T07:56:42.891Z,-2.48
2023-02-09T07:59:11.118Z,-2.39
2023-02-09T08:01:38.493Z,-2.38
2023-02-09T08:04:05.963Z,-2.34
2023-02-09T08:06:42.175Z,-2.16
2023-02-09T08:09:11.478Z,-2.21
2023-02-09T08:11:41.468Z,-2.12
2023-02-09T08:14:11.913Z,-2.03
2023-02-09T08:16:39.624Z,-1.95
2023-02-09T08:19:09.750Z,-2.04
2023-02-09T08:21:38.569Z,-1.85
2023-02-09T08:24:06.834Z,-1.66
2023-02-09T08:26:34.238Z,-1.69
2023-02-09T08:29:03.228Z,-1.57
2023-02-09T08:31:30.775Z,-1.41
2023-02-09T08:33:58.179Z,-1.23
2023-02-09T08:36:25.486Z,-0.92
2023-02-09T08:38:52.891Z,-0.74
2023-02-09T08:41:20.289Z,-0.62
2023-02-09T08:43:51.598Z,-0.49
2023-02-09T08:46:20.521Z,-0.56
2023-02-09T08:48:48.161Z,-0.65
2023-02-09T08:51:16.236Z,-0.29
2023-02-09T08:53:46.118Z,-0.40
2023-02-09T08:56:13.463Z,-0.05
2023-02-09T08:58:40.793Z,-0.03
2023-02-09T09:01:08.251Z,0.10
2023-02-09T09:03:37.333Z,0.31
2023-02-09T09:06:05.552Z,0.32
2023-02-09T09:08:33.696Z,0.44
2023-02-09T09:11:01.090Z,0.86
2023-02-09T09:13:28.748Z,0.96
2023-02-09T09:15:56.490Z,0.89
2023-02-09T09:18:24.236Z,0.97
2023-02-09T09:20:52.971Z,0.80
2023-02-09T09:23:21.111Z,1.04
2023-02-09T09:25:48.570Z,1.08
2023-02-09T09:28:16.142Z,1.06
2023-02-09T09:30:43.555Z,1.17
2023-02-09T09:33:10.891Z,1.35
2023-02-09T09:35:38.430Z,1.42
2023-02-09T09:38:07.037Z,1.37
2023-02-09T09:40:35.598Z,1.51
2023-02-09T09:43:03.898Z,1.62
2023-02-09T09:45:33.481Z,1.82
2023-02-09T09:48:00.998Z,1.92
2023-02-09T09:50:29.526Z,1.94
2023-02-09T09:52:59.038Z,2.11
2023-02-09T09:55:29.516Z,2.06
2023-02-09T09:57:59.458Z,2.17
2023-02-09T10:00:28.360Z,2.37
2023-02-09T10:02:55.718Z,2.29
2023-02-09T10:05:24.392Z,2.26
2023-02-09T10:07:55.738Z,2.34
2023-02-09T10:10:29.567Z,2.38
2023-02-09T10:12:59.102Z,2.64
2023-02-09T10:15:28.606Z,2.81
2023-02-09T10:17:55.962Z,2.79
2023-02-09T10:20:38.165Z,2.67
2023-02-09T10:23:05.483Z,2.74
2023-02-09T10:25:38.696Z,2.65
2023-02-09T10:28:15.328Z,2.88
2023-02-09T10:30:46.841Z,2.97
2023-02-09T10:33:15.677Z,3.29
2023-02-09T10:35:45.544Z,3.49
2023-02-09T10:38:16.822Z,3.56
2023-02-09T10:40:44.150Z,3.67
2023-02-09T10:43:20.740Z,3.69
2023-02-09T10:45:49.272Z,3.62
2023-02-09T10:48:18.936Z,3.70
2023-02-09T10:50:50.134Z,3.75
2023-02-09T10:53:20.206Z,3.65
2023-02-09T10:55:47.750Z,3.70
2023-02-09T10:58:21.480Z,3.80
2023-02-09T11:00:50.603Z,4.07
2023-02-09T11:03:18.925Z,4.26
2023-02-09T11:05:47.901Z,4.38
2023-02-09T11:08:18.368Z,4.35
2023-02-09T11:10:50.366Z,4.49
2023-02-09T11:13:22.276Z,4.37
2023-02-09T11:16:00.708Z,4.34
2023-02-09T11:18:30.013Z,4.52
2023-02-09T11:21:03.226Z,4.68
2023-02-09T11:23:43.249Z,4.70
2023-02-09T11:26:16.109Z,4.71
2023-02-09T11:28:49.088Z,4.83
2023-02-09T11:31:25.187Z,4.73
2023-02-09T11:33:57.488Z,4.66
2023-02-09T11:36:34.117Z,4.63
2023-02-09T11:39:02.576Z,4.53
2023-02-09T11:41:48.095Z,4.62
2023-02-09T11:44:21.506Z,4.62
2023-02-09T11:46:49.837Z,4.53
2023-02-09T11:49:20.363Z,4.49
2023-02-09T11:51:49.047Z,4.63
2023-02-09T11:54:18.441Z,4.62
2023-02-09T11:56:49.827Z,4.44
2023-02-09T11:59:22.393Z,4.46
2023-02-09T12:01:53.348Z,4.75
2023-02-09T12:04:24.617Z,4.78
2023-02-09T12:06:54.537Z,4.79
2023-02-09T12:09:31.481Z,4.61
2023-02-09T12:12:03.236Z,4.55
2023-02-09T12:14:39.531Z,4.62
2023-02-09T12:17:11.677Z,4.67
2023-02-09T12:19:42.203Z,4.62
2023-02-09T12:22:24.431Z,4.49
2023-02-09T12:25:11.807Z,4.50
2023-02-09T12:27:41.484Z,4.47
2023-02-09T12:30:23.673Z,4.64
2023-02-09T12:32:52.322Z,4.65
2023-02-09T12:35:27.235Z,4.71
2023-02-09T12:38:09.129Z,4.64
2023-02-09T12:40:37.179Z,4.52
2023-02-09T12:43:10.991Z,4.50
2023-02-09T12:45:39.393Z,4.47
2023-02-09T12:48:17.587Z,4.38
2023-02-09T12:50:53.500Z,4.34
2023-02-09T12:53:37.988Z,4.31
2023-02-09T12:56:24.041Z,4.19
2023-02-09T12:58:56.175Z,4.28
2023-02-09T13:01:43.473Z,4.26
2023-02-09T13:04:13.570Z,4.33
2023-02-09T13:06:44.345Z,4.22
2023-02-09T13:09:19.976Z,4.14
2023-02-09T13:11:49.738Z,4.14
2023-02-09T13:14:18.273Z,4.12
2023-02-09T13:16:59.912Z,4.17
2023-02-09T13:19:47.686Z,4.28
2023-02-09T13:22:26.212Z,4.29
2023-02-09T13:25:00.180Z,4.19
2023-02-09T13:27:28.350Z,4.29
2023-02-09T13:29:56.975Z,4.26
2023-02-09T13:32:35.074Z,4.26
2023-02-09T13:35:07.641Z,4.27
2023-02-09T13:37:43.794Z,4.13
2023-02-09T13:40:15.453Z,4.14
2023-02-09T13:42:52.247Z,4.06
2023-02-09T13:45:20.301Z,3.96
2023-02-09T13:47:48.220Z,3.94
2023-02-09T13:50:18.963Z,3.91
2023-02-09T13:52:46.254Z,3.94
2023-02-09T13:55:16.252Z,3.99
2023-02-09T13:57:44.890Z,4.03
2023-02-09T14:00:19.674Z,4.02
2023-02-09T14:02:48.916Z,3.96
2023-02-09T14:05:24.186Z,3.93
2023-02-09T14:07:51.867Z,3.95
2023-02-09T14:10:19.741Z,3.95
2023-02-09T14:12:55.411Z,3.99
2023-02-09T14:15:43.061Z,4.02
2023-02-09T14:18:37.339Z,3.90
2023-02-09T14:21:14.850Z,3.81
2023-02-09T14:23:43.098Z,3.87
2023-02-09T14:26:19.636Z,3.77
2023-02-09T14:28:50.009Z,3.63
2023-02-09T14:31:19.141Z,3.68
2023-02-09T14:33:48.292Z,3.61
2023-02-09T14:36:23.325Z,3.54
2023-02-09T14:38:51.702Z,3.52
2023-02-09T14:41:28.898Z,3.57
2023-02-09T14:44:00.454Z,3.58
2023-02-09T14:46:27.857Z,3.49
2023-02-09T14:48:58.397Z,3.51
2023-02-09T14:51:28.477Z,3.41
2023-02-09T14:53:55.885Z,3.48
2023-02-09T14:56:24.664Z,3.37
2023-02-09T14:58:51.976Z,3.38
2023-02-09T15:01:19.351Z,3.39
2023-02-09T15:03:46.731Z,3.35
2023-02-09T15:06:14.882Z,3.37
2023-02-09T15:08:44.076Z,3.25
2023-02-09T15:11:31.683Z,3.21
2023-02-09T15:14:01.487Z,3.08
2023-02-09T15:16:29.280Z,3.04
2023-02-09T15:18:56.636Z,3.06
2023-02-09T15:21:24.048Z,3.00
2023-02-09T15:23:52.708Z,2.93
2023-02-09T15:26:20.409Z,2.89
2023-02-09T15:28:48.295Z,2.89
2023-02-09T15:31:16.375Z,2.82
2023-02-09T15:33:44.146Z,2.70
2023-02-09T15:36:13.536Z,2.76
2023-02-09T15:38:40.847Z,2.59
2023-02-09T15:41:28.817Z,2.65
2023-02-09T15:44:13.677Z,2.57
2023-02-09T15:46:58.521Z,2.42
2023-02-09T15:49:25.860Z,2.43
2023-02-09T15:51:53.359Z,2.38
2023-02-09T15:54:22.479Z,2.27
2023-02-09T15:56:51.066Z,2.09
2023-02-09T15:59:20.003Z,2.14
2023-02-09T16:01:48.277Z,2.07
2023-02-09T16:04:15.709Z,2.06
2023-02-09T16:06:45.055Z,1.90
2023-02-09T16:09:17.251Z,1.83
2023-02-09T16:11:44.680Z,1.79
2023-02-09T16:14:16.183Z,1.80
2023-02-09T16:16:44.779Z,1.71
2023-02-09T16:19:12.230Z,1.60
2023-02-09T16:21:39.820Z,1.62
2023-02-09T16:24:08.067Z,1.62
2023-02-09T16:26:35.570Z,1.51
2023-02-09T16:29:02.885Z,1.48
2023-02-09T16:31:31.678Z,1.38
2023-02-09T16:33:58.972Z,1.50
2023-02-09T16:36:28.206Z,1.35
2023-02-09T16:38:55.534Z,1.35
2023-02-09T16:41:40.540Z,1.33
2023-02-09T16:44:14.804Z,1.13
2023-02-09T16:46:43.588Z,1.11
2023-02-09T16:49:18.242Z,1.01
2023-02-09T16:51:45.791Z,1.00
2023-02-09T16:54:13.106Z,0.90
2023-02-09T16:56:53.605Z,0.79
2023-02-09T16:59:21.311Z,0.63
2023-02-09T17:01:50.222Z,0.53
2023-02-09T17:04:17.942Z,0.39
2023-02-09T17:06:46.093Z,0.66
2023-02-09T17:09:14.930Z,0.57
2023-02-09T17:11:42.236Z,0.71
2023-02-09T17:14:09.732Z,0.66
2023-02-09T17:16:39.216Z,0.51
2023-02-09T17:19:11.385Z,0.31
2023-02-09T17:21:40.233Z,0.02
2023-02-09T17:24:12.210Z,0.12
2023-02-09T17:26:40.317Z,0.25
2023-02-09T17:29:07.609Z,0.14
2023-02-09T17:31:50.685Z,0.15
2023-02-09T17:34:26.806Z,0.30
2023-02-09T17:36:54.105Z,0.00
2023-02-09T17:39:24.855Z,-0.11
2023-02-09T17:41:52.151Z,-0.07
2023-02-09T17:44:34.869Z,0.01
2023-02-09T17:47:10.555Z,-0.07
2023-02-09T17:49:39.193Z,-0.06
2023-02-09T17:52:06.692Z,0.04
2023-02-09T17:54:33.991Z,-0.06
2023-02-09T17:57:01.266Z,-0.07
2023-02-09T17:59:28.578Z,-0.18
2023-02-09T18:01:56.186Z,-0.27
2023-02-09T18:04:26.700Z,-0.40
2023-02-09T18:06:57.676Z,-0.42
2023-02-09T18:09:25.117Z,-0.38
2023-02-09T18:11:57.323Z,-0.39
2023-02-09T18:14:25.202Z,-0.52
2023-02-09T18:16:53.437Z,-0.34
2023-02-09T18:19:20.749Z,-0.43
2023-02-09T18:21:48.749Z,-0.48
2023-02-09T18:24:17.443Z,-0.39
2023-02-09T18:26:46.727Z,-0.45
2023-02-09T18:29:14.063Z,-0.42
2023-02-09T18:31:41.353Z,-0.48
2023-02-09T18:34:08.779Z,-0.57
2023-02-09T18:36:36.281Z,-0.54
2023-02-09T18:39:03.644Z,-0.49
2023-02-09T18:41:32.336Z,-0.37
2023-02-09T18:43:59.642Z,-0.66
2023-02-09T18:46:27.079Z,-0.76
2023-02-09T18:48:55.056Z,-0.60
2023-02-09T18:51:22.749Z,-0.64
2023-02-09T18:53:51.287Z,-0.55
2023-02-09T18:56:19.920Z,-0.76
2023-02-09T18:58:48.613Z,-0.78
2023-02-09T19:01:16.376Z,-0.83
2023-02-09T19:03:43.646Z,-0.79
2023-02-09T19:06:11.819Z,-0.62
2023-02-09T19:08:39.840Z,-0.72
2023-02-09T19:11:07.558Z,-0.86
2023-02-09T19:13:35.480Z,-0.89
2023-02-09T19:16:04.266Z,-0.83
2023-02-09T19:18:31.591Z,-0.81
2023-02-09T19:20:59.165Z,-0.83
2023-02-09T19:23:26.486Z,-0.72
2023-02-09T19:26:01.400Z,-0.66
2023-02-09T19:28:28.751Z,-0.54
2023-02-09T19:30:56.119Z,-0.57
2023-02-09T19:33:24.808Z,-0.61
2023-02-09T19:35:58.405Z,-0.72
2023-02-09T19:38:26.491Z,-0.63
2023-02-09T19:41:08.535Z,-0.45
2023-02-09T19:43:36.983Z,-0.28
2023-02-09T19:46:04.503Z,-0.21
2023-02-09T19:48:33.199Z,-0.25
2023-02-09T19:51:00.703Z,-0.25
2023-02-09T19:53:28.279Z,-0.34
2023-02-09T19:55:55.712Z,-0.59
2023-02-09T19:58:23.139Z,-0.65
2023-02-09T20:00:50.486Z,-0.76
2023-02-09T20:03:17.959Z,-0.83
2023-02-09T20:05:47.210Z,-0.86
2023-02-09T20:08:16.854Z,-1.02
2023-02-09T20:10:45.143Z,-0.68
2023-02-09T20:13:13.342Z,-0.73
2023-02-09T20:15:41.525Z,-0.85
2023-02-09T20:18:08.877Z,-0.86
2023-02-09T20:20:36.148Z,-0.83
2023-02-09T20:23:06.777Z,-0.78
2023-02-09T20:25:34.056Z,-0.80
2023-02-09T20:28:01.418Z,-0.83
2023-02-09T20:30:28.877Z,-0.92
2023-02-09T20:32:56.145Z,-0.95
2023-02-09T20:35:23.401Z,-0.95
2023-02-09T20:37:52.729Z,-1.10
2023-02-09T20:40:21.620Z,-1.08
2023-02-09T20:43:06.364Z,-0.97
2023-02-09T20:45:59.570Z,-1.26
2023-02-09T20:48:26.892Z,-1.08
2023-02-09T20:50:54.184Z,-1.09
2023-02-09T20:53:22.362Z,-1.18
2023-02-09T20:55:50.941Z,-1.22
2023-02-09T20:58:19.166Z,-1.29
2023-02-09T21:00:46.544Z,-1.30
2023-02-09T21:03:14.006Z,-1.31
2023-02-09T21:05:41.300Z,-1.27
2023-02-09T21:08:09.139Z,-1.32
2023-02-09T21:10:38.355Z,-1.33
2023-02-09T21:13:07.461Z,-1.38
2023-02-09T21:15:34.918Z,-1.47
2023-02-09T21:18:02.349Z,-1.34
2023-02-09T21:20:32.023Z,-1.54
2023-02-09T21:22:59.337Z,-1.42
2023-02-09T21:25:27.607Z,-1.29
2023-02-09T21:27:55.653Z,-1.28
2023-02-09T21:30:24.276Z,-1.36
2023-02-09T21:32:51.769Z,-1.34
2023-02-09T21:35:19.026Z,-1.48
2023-02-09T21:37:46.305Z,-1.51
2023-02-09T21:40:15.972Z,-1.63
2023-02-09T21:42:43.337Z,-1.57
2023-02-09T21:45:10.603Z,-1.56
2023-02-09T21:47:39.999Z,-1.60
2023-02-09T21:50:08.382Z,-1.65
2023-02-09T21:52:35.996Z,-1.61
2023-02-09T21:55:03.269Z,-1.74
2023-02-09T21:57:30.664Z,-1.92
2023-02-09T21:59:58.896Z,-2.25
2023-02-09T22:02:27.346Z,-2.02
2023-02-09T22:04:56.094Z,-1.97
2023-02-09T22:07:23.356Z,-1.78
2023-02-09T22:09:50.622Z,-1.89
2023-02-09T22:12:17.874Z,-1.97
2023-02-09T22:14:45.126Z,-1.87
2023-02-09T22:17:12.392Z,-1.91
2023-02-09T22:19:39.641Z,-1.93
2023-02-09T22:22:08.301Z,-2.11
2023-02-09T22:24:35.661Z,-2.04
2023-02-09T22:27:03.419Z,-2.13
2023-02-09T22:29:33.147Z,-2.25
2023-02-09T22:32:00.422Z,-2.16
2023-02-09T22:34:27.729Z,-2.13
2023-02-09T22:36:55.184Z,-2.19
2023-02-09T22:39:23.891Z,-2.24
2023-02-09T22:41:51.144Z,-2.19
2023-02-09T22:44:18.716Z,-2.32
2023-02-09T22:46:46.890Z,-2.28
2023-02-09T22:49:16.232Z,-2.48
2023-02-09T22:51:43.723Z,-2.45
2023-02-09T22:54:10.981Z,-2.46
2023-02-09T22:56:39.567Z,-2.41
2023-02-09T22:59:06.841Z,-2.33
2023-02-09T23:01:34.424Z,-2.29
2023-02-09T23:04:01.736Z,-2.21
2023-02-09T23:06:30.119Z,-2.25
2023-02-09T23:08:58.947Z,-2.19
2023-02-09T23:11:26.812Z,-2.18
2023-02-09T23:14:11.616Z,-2.11
2023-02-09T23:16:39.991Z,-2.28
2023-02-09T23:19:08.155Z,-2.27
2023-02-09T23:21:36.762Z,-2.34
2023-02-09T23:24:04.377Z,-2.35
2023-02-09T23:26:31.682Z,-2.31
2023-02-09T23:29:01.235Z,-2.38
2023-02-09T23:31:29.090Z,-2.33
2023-02-09T23:33:56.546Z,-2.19
2023-02-09T23:36:24.562Z,-2.23
2023-02-09T23:38:53.455Z,-2.33
2023-02-09T23:41:20.932Z,-2.49
2023-02-09T23:43:48.525Z,-2.44
2023-02-09T23:46:17.931Z,-2.58
2023-02-09T23:48:45.627Z,-2.62
2023-02-09T23:51:14.546Z,-2.47
2023-02-09T23:53:42.221Z,-2.50
2023-02-09T23:56:09.493Z,-2.67
2023-02-09T23:58:38.284Z,-2.24
